createdAt,value
2022-08-20T00:00:22.959Z,11.53
2022-08-20T00:03:39.039Z,11.38
2022-08-20T00:06:45.004Z,10.58
2022-08-20T00:09:52.178Z,11.03
2022-08-20T00:13:01.216Z,10.23
2022-08-20T00:16:09.219Z,10.23
2022-08-20T00:19:17.021Z,10.55
2022-08-20T00:22:24.518Z,9.65
2022-08-20T00:25:31.208Z,10.23
2022-08-20T00:28:37.876Z,8.85
2022-08-20T00:31:44.125Z,8.70
2022-08-20T00:34:50.811Z,9.95
2022-08-20T00:38:00.656Z,8.78
2022-08-20T00:41:11.741Z,8.95
2022-08-20T00:44:26.912Z,8.90
2022-08-20T00:47:35.226Z,8.23
2022-08-20T00:50:45.817Z,7.85
2022-08-20T00:53:52.765Z,7.62
2022-08-20T00:57:00.682Z,7.75
2022-08-20T01:00:06.836Z,8.03
2022-08-20T01:03:13.110Z,8.40
2022-08-20T01:06:18.974Z,7.80
2022-08-20T01:09:49.491Z,8.10
2022-08-20T01:12:32.928Z,8.25
2022-08-20T01:15:43.225Z,7.87
2022-08-20T01:18:49.166Z,8.20
2022-08-20T01:21:55.325Z,8.28
2022-08-20T01:25:02.002Z,8.00
2022-08-20T01:28:09.067Z,7.85
2022-08-20T01:31:15.665Z,7.75
2022-08-20T01:34:25.557Z,8.35
2022-08-20T01:37:31.563Z,7.95
2022-08-20T01:40:46.414Z,7.85
2022-08-20T01:43:52.405Z,7.72
2022-08-20T01:47:01.098Z,7.65
2022-08-20T01:50:11.170Z,7.47
2022-08-20T01:53:36.986Z,7.08
2022-08-20T01:56:44.588Z,7.45
2022-08-20T01:59:50.959Z,7.17
2022-08-20T02:02:58.146Z,7.12
2022-08-20T02:06:04.506Z,7.08
2022-08-20T02:09:16.254Z,7.20
2022-08-20T02:12:24.637Z,7.28
2022-08-20T02:15:34.877Z,7.33
2022-08-20T02:18:37.968Z,7.30
2022-08-20T02:21:45.684Z,7.00
2022-08-20T02:24:53.066Z,6.70
2022-08-20T02:28:00.376Z,7.00
2022-08-20T02:31:08.364Z,6.62
2022-08-20T02:34:22.095Z,6.55
2022-08-20T02:37:25.378Z,7.12
2022-08-20T02:40:34.336Z,7.08
2022-08-20T02:43:40.177Z,7.42
2022-08-20T02:46:46.141Z,6.97
2022-08-20T02:49:53.543Z,7.08
2022-08-20T02:53:00.935Z,7.22
2022-08-20T02:56:06.182Z,6.97
2022-08-20T02:59:19.033Z,6.75
2022-08-20T03:02:22.821Z,6.20
2022-08-20T03:05:29.379Z,7.22
2022-08-20T03:08:35.544Z,7.60
2022-08-20T03:11:43.131Z,7.17
2022-08-20T03:14:50.167Z,7.22
2022-08-20T03:17:55.827Z,7.47
2022-08-20T03:21:03.064Z,7.03
2022-08-20T03:24:08.096Z,7.65
2022-08-20T03:27:13.390Z,7.42
2022-08-20T03:30:22.977Z,7.17
2022-08-20T03:33:28.534Z,7.08
2022-08-20T03:36:37.351Z,7.53
2022-08-20T03:39:42.944Z,7.00
2022-08-20T03:42:49.895Z,7.22
2022-08-20T03:45:56.158Z,7.58
2022-08-20T03:49:03.755Z,7.90
2022-08-20T03:52:10.537Z,10.10
2022-08-20T03:55:16.890Z,7.97
2022-08-20T03:58:34.793Z,7.80
2022-08-20T04:01:45.751Z,7.40
2022-08-20T04:04:41.555Z,7.30
2022-08-20T04:07:51.270Z,7.53
2022-08-20T04:10:59.125Z,7.10
2022-08-20T04:14:05.659Z,7.67
2022-08-20T04:17:11.399Z,7.10
2022-08-20T04:20:22.701Z,6.33
2022-08-20T04:23:28.732Z,7.00
2022-08-20T04:26:35.035Z,6.53
2022-08-20T04:29:42.004Z,6.50
2022-08-20T04:32:48.381Z,6.45
2022-08-20T04:35:54.123Z,6.78
2022-08-20T04:38:59.998Z,6.47
2022-08-20T04:42:06.159Z,6.28
2022-08-20T04:45:12.810Z,6.60
2022-08-20T04:48:22.396Z,6.78
2022-08-20T04:51:29.469Z,7.15
2022-08-20T04:54:37.466Z,6.72
2022-08-20T04:57:46.096Z,6.37
2022-08-20T05:00:54.118Z,6.50
2022-08-20T05:04:02.249Z,7.28
2022-08-20T05:07:09.079Z,6.53
2022-08-20T05:10:18.124Z,6.22
2022-08-20T05:13:27.285Z,6.80
2022-08-20T05:16:32.090Z,6.85
2022-08-20T05:19:38.991Z,6.08
2022-08-20T05:22:45.675Z,6.72
2022-08-20T05:25:57.522Z,7.83
2022-08-20T05:29:02.972Z,7.20
2022-08-20T05:32:09.973Z,6.45
2022-08-20T05:35:20.751Z,7.58
2022-08-20T05:38:29.143Z,6.17
2022-08-20T05:41:37.081Z,6.25
2022-08-20T05:44:44.970Z,6.42
2022-08-20T05:47:56.563Z,6.72
2022-08-20T05:51:04.264Z,6.58
2022-08-20T05:54:11.984Z,6.65
2022-08-20T05:57:16.697Z,5.80
2022-08-20T06:00:26.684Z,6.25
2022-08-20T06:03:53.808Z,6.65
2022-08-20T06:07:01.529Z,5.87
2022-08-20T06:10:10.420Z,6.05
2022-08-20T06:13:15.747Z,5.78
2022-08-20T06:16:22.889Z,6.72
2022-08-20T06:19:32.319Z,6.65
2022-08-20T06:22:36.862Z,7.62
2022-08-20T06:25:44.111Z,6.83
2022-08-20T06:28:54.073Z,6.60
2022-08-20T06:32:00.483Z,6.90
2022-08-20T06:35:11.090Z,6.67
2022-08-20T06:38:20.434Z,6.62
2022-08-20T06:41:36.895Z,6.58
2022-08-20T06:44:35.092Z,8.00
2022-08-20T06:47:42.263Z,7.47
2022-08-20T06:50:53.895Z,6.42
2022-08-20T06:53:58.860Z,8.55
2022-08-20T06:57:04.280Z,6.80
2022-08-20T07:00:11.080Z,6.80
2022-08-20T07:03:19.569Z,6.42
2022-08-20T07:06:26.612Z,6.30
2022-08-20T07:09:35.101Z,7.35
2022-08-20T07:12:43.109Z,6.35
2022-08-20T07:15:49.310Z,6.85
2022-08-20T07:18:59.524Z,7.20
2022-08-20T07:22:06.279Z,8.05
2022-08-20T07:25:15.225Z,7.20
2022-08-20T07:28:29.580Z,7.05
2022-08-20T07:35:01.376Z,6.60
2022-08-20T07:38:08.233Z,7.85
2022-08-20T07:41:24.258Z,7.25
2022-08-20T07:44:34.707Z,5.53
2022-08-20T07:47:43.085Z,6.47
2022-08-20T07:50:52.052Z,7.47
2022-08-20T07:54:00.365Z,7.42
2022-08-20T07:57:07.468Z,7.05
2022-08-20T08:00:15.612Z,6.15
2022-08-20T08:03:22.648Z,7.08
2022-08-20T08:06:36.394Z,6.75
2022-08-20T08:09:43.603Z,7.10
2022-08-20T08:12:54.413Z,5.58
2022-08-20T08:16:04.907Z,6.60
2022-08-20T08:19:14.062Z,7.58
2022-08-20T08:22:24.103Z,7.22
2022-08-20T08:25:29.867Z,6.83
2022-08-20T08:28:39.169Z,6.62
2022-08-20T08:31:48.203Z,6.42
2022-08-20T08:34:54.819Z,6.72
2022-08-20T08:38:01.529Z,7.55
2022-08-20T08:41:13.195Z,6.85
2022-08-20T08:44:29.848Z,7.53
2022-08-20T08:47:45.573Z,6.42
2022-08-20T08:50:53.164Z,6.45
2022-08-20T08:54:07.182Z,6.72
2022-08-20T08:57:15.353Z,6.92
2022-08-20T09:00:28.672Z,6.67
2022-08-20T09:03:46.710Z,5.67
2022-08-20T09:06:55.231Z,6.92
2022-08-20T09:10:01.952Z,6.83
2022-08-20T09:13:08.599Z,6.67
2022-08-20T09:16:16.419Z,6.75
2022-08-20T09:19:25.615Z,6.87
2022-08-20T09:22:35.763Z,6.80
2022-08-20T09:25:42.124Z,7.53
2022-08-20T09:28:52.134Z,6.65
2022-08-20T09:31:59.973Z,6.83
2022-08-20T09:35:09.491Z,7.12
2022-08-20T09:38:16.830Z,6.33
2022-08-20T09:41:24.584Z,6.78
2022-08-20T09:44:31.677Z,6.60
2022-08-20T09:47:39.210Z,6.47
2022-08-20T09:50:47.720Z,7.00
2022-08-20T09:53:55.595Z,7.20
2022-08-20T09:57:05.406Z,6.22
2022-08-20T10:00:16.397Z,7.10
2022-08-20T10:03:22.644Z,6.78
2022-08-20T10:06:34.605Z,6.45
2022-08-20T10:09:40.020Z,7.17
2022-08-20T10:12:54.593Z,6.55
2022-08-20T10:15:57.741Z,6.22
2022-08-20T10:19:02.778Z,7.75
2022-08-20T10:22:10.748Z,6.05
2022-08-20T10:25:16.847Z,6.97
2022-08-20T10:28:24.809Z,7.15
2022-08-20T10:31:31.065Z,6.90
2022-08-20T10:34:39.880Z,6.60
2022-08-20T10:37:50.803Z,6.25
2022-08-20T10:41:02.238Z,6.45
2022-08-20T10:44:08.911Z,7.20
2022-08-20T10:47:34.782Z,7.50
2022-08-20T10:50:41.077Z,6.47
2022-08-20T10:53:47.550Z,6.25
2022-08-20T10:56:54.413Z,5.72
2022-08-20T11:00:00.925Z,6.37
2022-08-20T11:03:06.451Z,6.58
2022-08-20T11:06:14.903Z,6.78
2022-08-20T11:09:21.668Z,6.12
2022-08-20T11:12:28.417Z,6.55
2022-08-20T11:15:35.010Z,6.42
2022-08-20T11:18:46.286Z,7.50
2022-08-20T11:21:52.505Z,6.78
2022-08-20T11:24:59.012Z,6.33
2022-08-20T11:28:05.190Z,6.20
2022-08-20T11:31:12.287Z,6.30
2022-08-20T11:34:20.353Z,6.33
2022-08-20T11:37:29.079Z,6.05
2022-08-20T11:40:35.227Z,5.00
2022-08-20T11:43:47.882Z,5.08
2022-08-20T11:46:50.329Z,5.30
2022-08-20T11:49:58.330Z,5.65
2022-08-20T11:53:08.016Z,5.45
2022-08-20T11:56:14.179Z,5.50
2022-08-20T11:59:22.695Z,5.05
2022-08-20T12:02:29.878Z,4.65
2022-08-20T12:05:36.020Z,5.45
2022-08-20T12:08:42.645Z,5.08
2022-08-20T12:11:48.514Z,4.85
2022-08-20T12:14:56.210Z,5.08
2022-08-20T12:18:02.021Z,5.58
2022-08-20T12:21:09.467Z,5.22
2022-08-20T12:24:15.680Z,6.28
2022-08-20T12:27:43.753Z,5.58
2022-08-20T12:30:53.192Z,6.28
2022-08-20T12:33:59.538Z,5.90
2022-08-20T12:37:18.410Z,5.97
2022-08-20T12:40:37.689Z,7.05
2022-08-20T12:43:46.400Z,5.78
2022-08-20T12:46:53.205Z,6.22
2022-08-20T12:50:01.013Z,5.85
2022-08-20T12:53:10.545Z,6.37
2022-08-20T12:56:17.648Z,5.55
2022-08-20T12:59:26.220Z,5.53
2022-08-20T13:02:33.323Z,6.25
2022-08-20T13:05:43.308Z,6.10
2022-08-20T13:08:49.428Z,6.20
2022-08-20T13:11:56.249Z,5.15
2022-08-20T13:15:04.446Z,5.85
2022-08-20T13:18:12.904Z,4.85
2022-08-20T13:21:23.498Z,5.70
2022-08-20T13:24:29.986Z,6.22
2022-08-20T13:27:38.790Z,5.60
2022-08-20T13:30:49.664Z,5.65
2022-08-20T13:33:56.429Z,6.15
2022-08-20T13:37:02.802Z,6.33
2022-08-20T13:40:09.491Z,5.85
2022-08-20T13:43:18.032Z,5.75
2022-08-20T13:46:24.635Z,6.67
2022-08-20T13:49:33.838Z,6.87
2022-08-20T13:52:38.569Z,7.10
2022-08-20T13:55:45.011Z,13.38
2022-08-20T13:58:53.071Z,8.05
2022-08-20T14:02:07.037Z,7.22
2022-08-20T14:05:14.294Z,6.22
2022-08-20T14:08:34.575Z,7.60
2022-08-20T14:11:40.062Z,6.97
2022-08-20T14:14:46.026Z,6.90
2022-08-20T14:17:53.455Z,6.97
2022-08-20T14:21:02.345Z,7.33
2022-08-20T14:24:11.755Z,7.75
2022-08-20T14:27:21.286Z,7.42
2022-08-20T14:30:30.043Z,7.37
2022-08-20T14:33:42.559Z,7.95
2022-08-20T14:36:47.576Z,7.53
2022-08-20T14:39:55.389Z,8.18
2022-08-20T14:43:01.495Z,7.22
2022-08-20T14:46:07.842Z,7.10
2022-08-20T14:49:14.792Z,7.12
2022-08-20T14:52:21.436Z,6.20
2022-08-20T14:55:30.248Z,7.90
2022-08-20T14:58:36.186Z,8.15
2022-08-20T15:01:43.571Z,7.60
2022-08-20T15:04:54.448Z,7.37
2022-08-20T15:08:03.044Z,7.97
2022-08-20T15:11:09.674Z,6.62
2022-08-20T15:14:18.703Z,6.70
2022-08-20T15:17:27.955Z,6.72
2022-08-20T15:20:41.128Z,5.70
2022-08-20T15:23:48.250Z,5.92
2022-08-20T15:26:56.010Z,6.58
2022-08-20T15:30:03.551Z,5.80
2022-08-20T15:33:10.114Z,5.62
2022-08-20T15:36:16.711Z,5.47
2022-08-20T15:39:24.009Z,5.05
2022-08-20T15:42:29.787Z,6.30
2022-08-20T15:45:36.749Z,5.80
2022-08-20T15:48:56.488Z,5.58
2022-08-20T15:52:02.780Z,5.85
2022-08-20T15:55:09.873Z,6.28
2022-08-20T15:58:20.919Z,6.22
2022-08-20T16:01:47.114Z,6.03
2022-08-20T16:05:14.610Z,5.70
2022-08-20T16:08:53.170Z,5.10
2022-08-20T16:12:11.520Z,5.72
2022-08-20T16:15:25.725Z,5.12
2022-08-20T16:18:39.996Z,5.17
2022-08-20T16:21:50.891Z,6.00
2022-08-20T16:24:57.273Z,6.53
2022-08-20T16:28:27.675Z,6.47
2022-08-20T16:31:40.907Z,6.80
2022-08-20T16:35:12.641Z,6.62
2022-08-20T16:38:56.667Z,6.33
2022-08-20T16:42:05.761Z,6.15
2022-08-20T16:45:12.694Z,6.75
2022-08-20T16:48:21.561Z,5.28
2022-08-20T16:51:36.275Z,4.75
2022-08-20T16:54:42.536Z,4.55
2022-08-20T16:57:47.977Z,4.58
2022-08-20T17:00:55.106Z,4.00
2022-08-20T17:04:06.103Z,4.78
2022-08-20T17:07:14.072Z,4.53
2022-08-20T17:10:38.004Z,4.17
2022-08-20T17:13:51.221Z,4.10
2022-08-20T17:17:01.926Z,4.47
2022-08-20T17:20:16.252Z,4.17
2022-08-20T17:23:25.834Z,5.28
2022-08-20T17:26:50.379Z,5.85
2022-08-20T17:30:08.741Z,4.22
2022-08-20T17:33:18.182Z,4.15
2022-08-20T17:36:34.166Z,4.90
2022-08-20T17:39:42.008Z,4.35
2022-08-20T17:42:49.195Z,4.33
2022-08-20T17:45:59.971Z,4.00
2022-08-20T17:49:08.989Z,4.47
2022-08-20T17:52:17.457Z,4.37
2022-08-20T17:55:24.087Z,4.45
2022-08-20T17:58:31.537Z,4.92
2022-08-20T18:01:36.513Z,4.17
2022-08-20T18:04:42.373Z,5.47
2022-08-20T18:07:52.290Z,4.65
2022-08-20T18:11:12.919Z,4.55
2022-08-20T18:14:28.630Z,4.50
2022-08-20T18:17:55.548Z,4.70
2022-08-20T18:21:35.710Z,4.60
2022-08-20T18:25:19.433Z,5.55
2022-08-20T18:28:40.512Z,5.87
2022-08-20T18:32:01.057Z,6.17
2022-08-20T18:35:05.502Z,5.85
2022-08-20T18:38:12.456Z,5.50
2022-08-20T18:41:27.101Z,5.08
2022-08-20T18:44:55.168Z,5.78
2022-08-20T18:48:02.864Z,5.35
2022-08-20T18:51:12.054Z,5.42
2022-08-20T18:54:17.719Z,5.47
2022-08-20T18:57:41.127Z,4.80
2022-08-20T19:01:04.343Z,4.87
2022-08-20T19:04:12.544Z,4.92
2022-08-20T19:07:20.263Z,4.83
2022-08-20T19:10:48.250Z,4.92
2022-08-20T19:14:36.425Z,4.83
2022-08-20T19:18:25.453Z,6.05
2022-08-20T19:21:30.616Z,5.05
2022-08-20T19:24:43.714Z,4.97
2022-08-20T19:30:56.987Z,5.28
2022-08-20T19:34:03.535Z,4.83
2022-08-20T19:37:35.058Z,5.10
2022-08-20T19:40:46.056Z,4.55
2022-08-20T19:43:57.025Z,4.97
2022-08-20T19:47:04.070Z,5.10
2022-08-20T19:50:31.937Z,4.95
2022-08-20T19:53:45.644Z,4.55
2022-08-20T19:56:56.199Z,4.92
2022-08-20T20:00:13.274Z,4.33
2022-08-20T20:03:29.099Z,4.95
2022-08-20T20:06:36.787Z,5.28
2022-08-20T20:09:43.571Z,4.87
2022-08-20T20:12:49.789Z,4.85
2022-08-20T20:15:55.124Z,4.35
2022-08-20T20:19:24.820Z,4.87
2022-08-20T20:22:29.458Z,4.67
2022-08-20T20:25:50.777Z,4.00
2022-08-20T20:29:02.674Z,4.03
2022-08-20T20:32:14.981Z,5.33
2022-08-20T20:35:24.113Z,5.37
2022-08-20T20:38:41.253Z,5.85
2022-08-20T20:41:46.559Z,5.53
2022-08-20T20:44:57.873Z,4.87
2022-08-20T20:48:07.103Z,5.55
2022-08-20T20:51:14.190Z,5.25
2022-08-20T20:54:37.044Z,4.47
2022-08-20T20:57:42.380Z,4.53
2022-08-20T21:00:49.566Z,5.25
2022-08-20T21:03:57.068Z,3.92
2022-08-20T21:07:02.924Z,6.15
2022-08-20T21:10:10.406Z,4.45
2022-08-20T21:13:18.016Z,4.67
2022-08-20T21:16:26.849Z,5.55
2022-08-20T21:19:33.811Z,6.12
2022-08-20T21:22:40.871Z,4.55
2022-08-20T21:25:47.901Z,5.00
2022-08-20T21:28:56.119Z,5.08
2022-08-20T21:32:02.990Z,4.80
2022-08-20T21:35:08.752Z,5.17
2022-08-20T21:38:15.107Z,5.05
2022-08-20T21:41:29.476Z,4.78
2022-08-20T21:44:39.829Z,5.40
2022-08-20T21:47:49.675Z,6.12
2022-08-20T21:50:58.000Z,5.05
2022-08-20T21:54:04.265Z,5.08
2022-08-20T21:57:15.033Z,4.60
2022-08-20T22:00:29.297Z,5.17
2022-08-20T22:03:42.002Z,5.37
2022-08-20T22:06:47.344Z,5.33
2022-08-20T22:09:55.935Z,5.45
2022-08-20T22:13:02.746Z,5.45
2022-08-20T22:16:10.035Z,4.87
2022-08-20T22:19:17.389Z,4.92
2022-08-20T22:22:27.493Z,4.72
2022-08-20T22:25:35.792Z,4.92
2022-08-20T22:28:41.967Z,5.10
2022-08-20T22:31:50.070Z,4.78
2022-08-20T22:34:58.182Z,4.65
2022-08-20T22:38:04.744Z,6.20
2022-08-20T22:41:10.604Z,4.53
2022-08-20T22:44:19.026Z,4.50
2022-08-20T22:47:26.338Z,5.25
2022-08-20T22:50:34.508Z,4.55
2022-08-20T22:53:41.297Z,4.70
2022-08-20T22:56:48.496Z,4.67
2022-08-20T22:59:57.221Z,4.80
2022-08-20T23:03:06.455Z,4.35
2022-08-20T23:06:14.050Z,3.98
2022-08-20T23:09:21.369Z,4.75
2022-08-20T23:12:28.426Z,4.30
2022-08-20T23:15:34.072Z,4.62
2022-08-20T23:18:41.152Z,4.60
2022-08-20T23:21:47.217Z,5.37
2022-08-20T23:25:00.320Z,4.67
2022-08-20T23:28:04.878Z,4.40
2022-08-20T23:31:13.802Z,4.45
2022-08-20T23:34:22.440Z,4.60
2022-08-20T23:37:27.872Z,4.55
2022-08-20T23:40:36.187Z,5.40
2022-08-20T23:43:43.074Z,5.22
2022-08-20T23:46:48.968Z,4.60
2022-08-20T23:49:57.745Z,4.55
2022-08-20T23:53:05.446Z,4.47
2022-08-20T23:56:11.816Z,4.83
2022-08-20T23:59:17.813Z,4.83
